createdAt,value
2018-05-21T00:00:47.203Z,46.50
2018-05-21T00:03:20.090Z,46.32
2018-05-21T00:05:52.637Z,46.57
2018-05-21T00:08:25.181Z,46.52
2018-05-21T00:10:57.691Z,47.45
2018-05-21T00:13:30.229Z,47.60
2018-05-21T00:16:02.746Z,47.57
2018-05-21T00:18:36.542Z,47.96
2018-05-21T00:21:09.087Z,48.37
2018-05-21T00:23:41.630Z,47.91
2018-05-21T00:26:14.176Z,48.60
2018-05-21T00:28:46.728Z,47.90
2018-05-21T00:31:19.232Z,48.02
2018-05-21T00:33:51.830Z,48.43
2018-05-21T00:36:24.352Z,48.85
2018-05-21T00:38:56.907Z,49.40
2018-05-21T00:41:29.434Z,49.14
2018-05-21T00:44:01.955Z,50.08
2018-05-21T00:46:36.119Z,49.61
2018-05-21T00:49:08.697Z,49.38
2018-05-21T00:51:41.243Z,50.06
2018-05-21T00:54:13.790Z,49.49
2018-05-21T00:56:46.398Z,50.05
2018-05-21T00:59:18.922Z,49.89
2018-05-21T01:01:51.476Z,49.13
2018-05-21T01:04:24.014Z,49.36
2018-05-21T01:06:56.609Z,49.44
2018-05-21T01:09:29.125Z,49.60
2018-05-21T01:12:01.682Z,50.03
2018-05-21T01:14:34.244Z,49.90
2018-05-21T01:17:06.800Z,49.84
2018-05-21T01:19:39.329Z,50.59
2018-05-21T01:22:11.879Z,50.00
2018-05-21T01:24:44.425Z,50.16
2018-05-21T01:27:16.983Z,50.06
2018-05-21T01:29:49.498Z,50.08
2018-05-21T01:32:22.043Z,49.96
2018-05-21T01:34:54.567Z,50.37
2018-05-21T01:37:27.117Z,50.09
2018-05-21T01:39:59.659Z,50.21
2018-05-21T01:42:32.207Z,50.29
2018-05-21T01:45:04.785Z,50.18
2018-05-21T01:47:37.365Z,50.39
2018-05-21T01:50:09.905Z,50.29
2018-05-21T01:52:42.461Z,50.56
2018-05-21T01:55:14.976Z,50.27
2018-05-21T01:57:47.555Z,50.34
2018-05-21T02:00:20.071Z,50.45
2018-05-21T02:02:52.652Z,50.57
2018-05-21T02:05:25.183Z,50.59
2018-05-21T02:07:57.720Z,50.46
2018-05-21T02:10:30.234Z,50.54
2018-05-21T02:13:02.782Z,50.92
2018-05-21T02:15:36.458Z,50.89
2018-05-21T02:18:09.011Z,50.85
2018-05-21T02:20:41.537Z,51.06
2018-05-21T02:23:14.095Z,50.79
2018-05-21T02:25:46.620Z,50.75
2018-05-21T02:28:19.172Z,51.18
2018-05-21T02:30:51.704Z,51.21
2018-05-21T02:33:24.238Z,51.37
2018-05-21T02:35:56.746Z,51.37
2018-05-21T02:38:29.279Z,51.19
2018-05-21T02:41:01.793Z,51.31
2018-05-21T02:43:34.388Z,51.30
2018-05-21T02:46:06.966Z,51.20
2018-05-21T02:48:39.521Z,51.56
2018-05-21T02:51:12.071Z,51.41
2018-05-21T02:53:44.613Z,51.49
2018-05-21T02:56:17.128Z,51.68
2018-05-21T02:58:49.687Z,51.91
2018-05-21T03:01:22.466Z,52.27
2018-05-21T03:03:55.002Z,52.01
2018-05-21T03:06:27.528Z,51.98
2018-05-21T03:09:00.054Z,52.00
2018-05-21T03:11:32.570Z,52.19
2018-05-21T03:14:06.474Z,52.02
2018-05-21T03:16:39.009Z,52.66
2018-05-21T03:19:11.570Z,52.27
2018-05-21T03:21:44.080Z,52.72
2018-05-21T03:24:16.605Z,52.95
2018-05-21T03:26:49.233Z,52.55
2018-05-21T03:29:21.769Z,52.80
2018-05-21T03:31:54.308Z,53.06
2018-05-21T03:34:26.837Z,53.26
2018-05-21T03:36:59.348Z,53.04
2018-05-21T03:39:31.880Z,53.20
2018-05-21T03:42:04.831Z,53.26
2018-05-21T03:44:38.127Z,53.04
2018-05-21T03:47:10.660Z,53.13
2018-05-21T03:49:43.222Z,53.09
2018-05-21T03:52:15.762Z,53.19
2018-05-21T03:54:48.306Z,53.47
2018-05-21T03:57:20.866Z,53.76
2018-05-21T04:00:06.784Z,53.62
2018-05-21T04:02:51.256Z,53.93
2018-05-21T04:05:23.780Z,53.54
2018-05-21T04:07:56.323Z,53.64
2018-05-21T04:10:28.840Z,53.68
2018-05-21T04:13:01.369Z,54.22
2018-05-21T04:15:33.880Z,53.96
2018-05-21T04:18:07.754Z,53.93
2018-05-21T04:20:40.268Z,53.85
2018-05-21T04:23:12.834Z,54.70
2018-05-21T04:25:45.352Z,54.24
2018-05-21T04:28:17.902Z,53.85
2018-05-21T04:30:50.534Z,54.06
2018-05-21T04:33:23.060Z,54.70
2018-05-21T04:35:55.571Z,53.65
2018-05-21T04:38:28.102Z,53.45
2018-05-21T04:41:00.607Z,52.91
2018-05-21T04:43:33.147Z,52.55
2018-05-21T04:46:12.179Z,52.18
2018-05-21T04:48:44.729Z,51.75
2018-05-21T04:51:17.250Z,51.81
2018-05-21T04:53:49.789Z,51.29
2018-05-21T04:56:22.301Z,51.15
2018-05-21T04:58:54.841Z,51.14
2018-05-21T05:01:27.353Z,51.09
2018-05-21T05:03:59.882Z,50.96
2018-05-21T05:06:32.385Z,49.99
2018-05-21T05:09:07.183Z,49.80
2018-05-21T05:11:39.716Z,49.52
2018-05-21T05:14:12.240Z,48.21
2018-05-21T05:16:44.789Z,48.20
2018-05-21T05:19:17.330Z,47.80
2018-05-21T05:21:49.882Z,47.75
2018-05-21T05:24:22.414Z,46.92
2018-05-21T05:26:54.921Z,46.93
2018-05-21T05:29:27.450Z,46.31
2018-05-21T05:31:59.960Z,45.66
2018-05-21T05:34:32.487Z,45.81
2018-05-21T05:37:05.713Z,45.12
2018-05-21T05:39:38.249Z,45.78
2018-05-21T05:42:10.884Z,44.21
2018-05-21T05:44:43.343Z,43.89
2018-05-21T05:47:15.867Z,43.07
2018-05-21T05:49:48.412Z,43.07
2018-05-21T05:52:20.942Z,43.75
2018-05-21T05:54:53.470Z,43.53
2018-05-21T05:57:25.980Z,43.54
2018-05-21T05:59:58.508Z,43.14
2018-05-21T06:02:31.018Z,41.44
2018-05-21T06:05:03.538Z,41.40
2018-05-21T06:07:36.752Z,42.00
2018-05-21T06:10:09.317Z,41.15
2018-05-21T06:12:41.848Z,41.08
2018-05-21T06:15:14.409Z,41.13
2018-05-21T06:17:46.946Z,41.00
2018-05-21T06:20:19.472Z,40.08
2018-05-21T06:22:52.109Z,40.78
2018-05-21T06:25:24.632Z,39.70
2018-05-21T06:27:57.182Z,39.10
2018-05-21T06:30:29.706Z,38.78
2018-05-21T06:33:04.477Z,38.71
2018-05-21T06:35:37.063Z,37.93
2018-05-21T06:38:09.611Z,37.87
2018-05-21T06:40:42.165Z,38.05
2018-05-21T06:43:14.715Z,37.71
2018-05-21T06:45:47.274Z,37.94
2018-05-21T06:48:19.796Z,37.14
2018-05-21T06:50:52.357Z,35.91
2018-05-21T06:53:24.886Z,36.42
2018-05-21T06:55:57.433Z,37.24
2018-05-21T06:58:29.938Z,35.70
2018-05-21T07:01:02.672Z,35.77
2018-05-21T07:03:35.251Z,36.43
2018-05-21T07:06:07.811Z,35.24
2018-05-21T07:08:40.342Z,34.66
2018-05-21T07:11:12.893Z,33.72
2018-05-21T07:13:45.414Z,33.36
2018-05-21T07:16:17.961Z,33.44
2018-05-21T07:18:50.489Z,34.05
2018-05-21T07:21:23.032Z,33.78
2018-05-21T07:23:55.590Z,34.91
2018-05-21T07:26:28.189Z,32.90
2018-05-21T07:29:00.729Z,32.60
2018-05-21T07:31:33.268Z,32.92
2018-05-21T07:34:06.125Z,32.51
2018-05-21T07:36:38.658Z,32.17
2018-05-21T07:39:11.233Z,31.82
2018-05-21T07:41:43.831Z,32.61
2018-05-21T07:44:16.376Z,32.42
2018-05-21T07:46:48.912Z,32.21
2018-05-21T07:49:21.710Z,32.53
2018-05-21T07:51:54.239Z,33.41
2018-05-21T07:54:26.777Z,33.08
2018-05-21T07:56:59.360Z,32.71
2018-05-21T07:59:31.879Z,32.08
2018-05-21T08:02:06.547Z,31.49
2018-05-21T08:04:39.114Z,30.19
2018-05-21T08:07:11.661Z,31.84
2018-05-21T08:09:44.212Z,31.54
2018-05-21T08:12:16.751Z,30.75
2018-05-21T08:14:49.400Z,31.81
2018-05-21T08:17:21.838Z,30.92
2018-05-21T08:19:54.402Z,30.73
2018-05-21T08:22:26.913Z,30.88
2018-05-21T08:24:59.440Z,29.28
2018-05-21T08:27:32.247Z,27.69
2018-05-21T08:30:06.582Z,28.23
2018-05-21T08:32:39.113Z,28.27
2018-05-21T08:35:11.660Z,28.75
2018-05-21T08:37:44.181Z,28.61
2018-05-21T08:40:16.737Z,27.78
2018-05-21T08:42:49.329Z,28.52
2018-05-21T08:45:21.806Z,28.21
2018-05-21T08:47:54.385Z,28.01
2018-05-21T08:50:26.915Z,25.14
2018-05-21T08:52:59.423Z,23.43
2018-05-21T08:55:31.946Z,23.05
2018-05-21T08:58:04.608Z,20.54
2018-05-21T09:00:38.718Z,21.01
2018-05-21T09:03:11.389Z,22.65
2018-05-21T09:05:44.001Z,24.10
2018-05-21T09:08:16.825Z,23.71
2018-05-21T09:10:49.780Z,21.32
2018-05-21T09:13:22.419Z,21.32
2018-05-21T09:15:54.964Z,22.56
2018-05-21T09:18:27.479Z,23.36
2018-05-21T09:21:00.012Z,23.64
2018-05-21T09:23:32.523Z,23.64
2018-05-21T09:26:05.335Z,23.21
2018-05-21T09:28:38.157Z,23.61
2018-05-21T09:31:10.712Z,25.43
2018-05-21T09:33:43.228Z,24.68
2018-05-21T09:36:15.796Z,25.16
2018-05-21T09:38:48.497Z,26.42
2018-05-21T09:41:21.467Z,25.65
2018-05-21T09:43:53.974Z,24.89
2018-05-21T09:46:26.550Z,24.97
2018-05-21T09:48:59.061Z,25.71
2018-05-21T09:51:31.590Z,25.83
2018-05-21T09:54:04.097Z,26.73
2018-05-21T09:56:37.662Z,25.67
2018-05-21T09:59:10.224Z,24.55
2018-05-21T10:01:42.817Z,25.38
2018-05-21T10:04:15.397Z,25.29
2018-05-21T10:06:47.952Z,25.46
2018-05-21T10:09:20.524Z,25.09
2018-05-21T10:11:53.164Z,24.00
2018-05-21T10:14:25.742Z,24.76
2018-05-21T10:16:58.349Z,25.10
2018-05-21T10:19:31.159Z,24.28
2018-05-21T10:22:03.752Z,24.38
2018-05-21T10:24:40.609Z,24.40
2018-05-21T10:27:13.172Z,25.84
2018-05-21T10:29:45.682Z,24.17
2018-05-21T10:32:18.219Z,24.37
2018-05-21T10:34:50.765Z,23.64
2018-05-21T10:37:23.340Z,23.10
2018-05-21T10:39:56.006Z,24.27
2018-05-21T10:42:28.849Z,24.08
2018-05-21T10:45:01.665Z,23.17
2018-05-21T10:47:34.592Z,24.29
2018-05-21T10:50:07.952Z,24.22
2018-05-21T10:52:40.845Z,23.88
2018-05-21T10:55:13.870Z,24.61
2018-05-21T10:57:46.810Z,24.24
2018-05-21T11:00:19.823Z,23.12
2018-05-21T11:02:53.198Z,22.80
2018-05-21T11:05:26.241Z,22.75
2018-05-21T11:07:58.866Z,24.39
2018-05-21T11:10:31.534Z,23.51
2018-05-21T11:13:06.384Z,23.67
2018-05-21T11:15:39.773Z,22.04
2018-05-21T11:18:12.689Z,23.83
2018-05-21T11:20:45.748Z,22.40
2018-05-21T11:23:18.731Z,21.80
2018-05-21T11:25:51.752Z,22.26
2018-05-21T11:28:24.342Z,22.52
2018-05-21T11:30:57.049Z,21.40
2018-05-21T11:33:30.817Z,21.38
2018-05-21T11:36:03.920Z,21.46
2018-05-21T11:38:37.448Z,21.87
2018-05-21T11:41:10.548Z,22.19
2018-05-21T11:43:43.353Z,22.17
2018-05-21T11:46:16.404Z,23.09
2018-05-21T11:48:50.440Z,22.02
2018-05-21T11:51:24.776Z,21.36
2018-05-21T11:53:58.195Z,22.67
2018-05-21T11:56:31.119Z,21.57
2018-05-21T11:59:04.282Z,22.04
2018-05-21T12:01:37.749Z,23.45
2018-05-21T12:04:10.588Z,22.20
2018-05-21T12:06:43.509Z,21.61
2018-05-21T12:09:16.280Z,21.45
2018-05-21T12:11:49.001Z,21.83
2018-05-21T12:14:21.906Z,23.20
2018-05-21T12:16:55.007Z,21.68
2018-05-21T12:19:27.976Z,22.71
2018-05-21T12:22:00.967Z,22.26
2018-05-21T12:24:33.882Z,23.75
2018-05-21T12:27:08.336Z,22.29
2018-05-21T12:29:41.340Z,23.32
2018-05-21T12:32:14.574Z,22.61
2018-05-21T12:34:47.403Z,21.90
2018-05-21T12:37:20.299Z,23.48
2018-05-21T12:39:53.133Z,22.50
2018-05-21T12:42:26.159Z,23.15
2018-05-21T12:44:58.938Z,23.98
2018-05-21T12:47:32.694Z,23.19
2018-05-21T12:50:05.925Z,22.61
2018-05-21T12:52:39.027Z,22.88
2018-05-21T12:55:12.034Z,22.48
2018-05-21T12:57:44.980Z,22.86
2018-05-21T13:00:17.886Z,22.47
2018-05-21T13:02:50.878Z,22.59
2018-05-21T13:05:23.634Z,23.33
2018-05-21T13:07:56.259Z,22.84
2018-05-21T13:10:29.221Z,22.68
2018-05-21T13:13:02.172Z,22.28
2018-05-21T13:18:13.958Z,22.73
2018-05-21T13:20:46.934Z,23.07
2018-05-21T13:23:19.584Z,21.85
2018-05-21T13:25:52.102Z,21.61
2018-05-21T13:28:24.645Z,22.58
2018-05-21T13:30:57.219Z,22.31
2018-05-21T13:33:30.029Z,22.07
2018-05-21T13:36:02.805Z,22.27
2018-05-21T13:38:36.267Z,21.03
2018-05-21T13:41:08.962Z,21.68
2018-05-21T13:43:41.743Z,21.53
2018-05-21T13:46:14.819Z,21.88
2018-05-21T13:48:47.688Z,21.81
2018-05-21T13:51:20.601Z,22.06
2018-05-21T13:53:53.508Z,21.74
2018-05-21T13:56:26.442Z,22.00
2018-05-21T13:58:59.114Z,21.66
2018-05-21T14:01:31.780Z,21.89
2018-05-21T14:04:04.357Z,22.34
2018-05-21T14:06:37.059Z,21.51
2018-05-21T14:09:09.650Z,22.08
2018-05-21T14:11:42.315Z,21.29
2018-05-21T14:14:14.906Z,21.96
2018-05-21T14:16:47.701Z,21.50
2018-05-21T14:19:20.215Z,22.29
2018-05-21T14:21:52.818Z,21.12
2018-05-21T14:24:25.607Z,22.09
2018-05-21T14:26:58.258Z,21.90
2018-05-21T14:29:31.318Z,21.57
2018-05-21T14:32:04.142Z,21.95
2018-05-21T14:34:36.800Z,22.61
2018-05-21T14:37:09.404Z,22.30
2018-05-21T14:39:41.931Z,22.04
2018-05-21T14:42:14.472Z,21.59
2018-05-21T14:44:47.005Z,22.29
2018-05-21T14:47:19.615Z,21.91
2018-05-21T14:49:52.199Z,21.93
2018-05-21T14:52:24.730Z,22.91
2018-05-21T14:54:57.304Z,22.35
2018-05-21T14:57:29.812Z,23.41
2018-05-21T15:00:02.341Z,22.53
2018-05-21T15:02:34.960Z,23.11
2018-05-21T15:05:08.120Z,22.50
2018-05-21T15:07:40.735Z,21.75
2018-05-21T15:10:13.431Z,22.05
2018-05-21T15:12:46.414Z,21.92
2018-05-21T15:15:18.987Z,22.28
2018-05-21T15:17:51.589Z,22.62
2018-05-21T15:20:24.158Z,22.18
2018-05-21T15:22:56.716Z,22.13
2018-05-21T15:25:29.635Z,21.65
2018-05-21T15:28:02.433Z,22.73
2018-05-21T15:30:35.226Z,22.69
2018-05-21T15:33:07.902Z,23.34
2018-05-21T15:35:40.558Z,22.74
2018-05-21T15:38:13.162Z,23.18
2018-05-21T15:40:46.035Z,23.02
2018-05-21T15:43:18.751Z,22.66
2018-05-21T15:45:51.273Z,22.38
2018-05-21T15:48:24.078Z,23.19
2018-05-21T15:50:56.644Z,22.51
2018-05-21T15:53:29.189Z,22.05
2018-05-21T15:56:01.781Z,22.29
2018-05-21T15:58:35.212Z,22.87
2018-05-21T16:01:08.531Z,22.42
2018-05-21T16:03:41.359Z,22.97
2018-05-21T16:06:13.868Z,22.50
2018-05-21T16:08:46.497Z,22.68
2018-05-21T16:11:19.037Z,22.60
2018-05-21T16:13:51.570Z,22.53
2018-05-21T16:16:24.309Z,22.29
2018-05-21T16:18:56.856Z,23.06
2018-05-21T16:21:29.382Z,22.97
2018-05-21T16:24:01.914Z,23.27
2018-05-21T16:26:34.529Z,23.45
2018-05-21T16:29:07.988Z,23.23
2018-05-21T16:31:40.516Z,23.12
2018-05-21T16:34:13.077Z,23.10
2018-05-21T16:36:45.616Z,23.49
2018-05-21T16:39:18.152Z,23.85
2018-05-21T16:41:50.662Z,23.78
2018-05-21T16:44:23.194Z,23.71
2018-05-21T16:46:55.711Z,23.91
2018-05-21T16:49:28.296Z,23.73
2018-05-21T16:52:00.800Z,23.32
2018-05-21T16:54:33.340Z,22.97
2018-05-21T16:57:07.554Z,23.09
2018-05-21T16:59:40.074Z,22.90
2018-05-21T17:02:12.616Z,23.04
2018-05-21T17:04:45.129Z,23.81
2018-05-21T17:07:17.711Z,23.72
2018-05-21T17:09:50.193Z,23.75
2018-05-21T17:12:22.729Z,23.74
2018-05-21T17:14:55.303Z,24.58
2018-05-21T17:17:27.859Z,23.87
2018-05-21T17:20:00.363Z,24.47
2018-05-21T17:22:32.889Z,24.87
2018-05-21T17:25:08.551Z,24.40
2018-05-21T17:27:41.093Z,23.76
2018-05-21T17:30:13.629Z,24.91
2018-05-21T17:32:46.165Z,24.20
2018-05-21T17:35:18.666Z,24.75
2018-05-21T17:37:51.199Z,24.62
2018-05-21T17:40:23.706Z,25.40
2018-05-21T17:42:56.221Z,25.30
2018-05-21T17:45:28.733Z,24.39
2018-05-21T17:48:01.262Z,25.48
2018-05-21T17:50:33.810Z,24.91
2018-05-21T17:53:06.665Z,25.15
2018-05-21T17:55:39.222Z,24.92
2018-05-21T17:58:11.768Z,25.24
2018-05-21T18:00:44.286Z,25.32
2018-05-21T18:03:16.878Z,25.27
2018-05-21T18:05:49.527Z,25.57
2018-05-21T18:08:22.085Z,26.06
2018-05-21T18:10:54.595Z,25.85
2018-05-21T18:13:27.122Z,26.24
2018-05-21T18:15:59.625Z,25.94
2018-05-21T18:18:32.153Z,26.09
2018-05-21T18:21:04.973Z,26.38
2018-05-21T18:23:38.128Z,26.39
2018-05-21T18:26:10.655Z,26.62
2018-05-21T18:28:43.184Z,26.85
2018-05-21T18:31:15.697Z,26.69
2018-05-21T18:33:48.220Z,26.85
2018-05-21T18:36:20.724Z,26.76
2018-05-21T18:38:54.015Z,27.96
2018-05-21T18:41:26.542Z,27.55
2018-05-21T18:43:59.087Z,27.72
2018-05-21T18:46:31.593Z,27.59
2018-05-21T18:49:04.239Z,27.80
2018-05-21T18:51:37.326Z,27.95
2018-05-21T18:54:10.302Z,28.45
2018-05-21T18:56:42.824Z,29.33
2018-05-21T18:59:15.380Z,28.38
2018-05-21T19:01:47.896Z,28.10
2018-05-21T19:04:20.451Z,29.10
2018-05-21T19:06:53.018Z,28.88
2018-05-21T19:09:25.561Z,29.92
2018-05-21T19:11:58.074Z,30.18
2018-05-21T19:14:30.610Z,32.00
2018-05-21T19:17:03.291Z,30.23
2018-05-21T19:19:37.953Z,29.97
2018-05-21T19:22:11.429Z,30.00
2018-05-21T19:24:43.966Z,30.36
2018-05-21T19:27:16.527Z,31.45
2018-05-21T19:29:49.055Z,31.66
2018-05-21T19:32:21.584Z,31.56
2018-05-21T19:34:54.157Z,32.37
2018-05-21T19:37:26.663Z,31.94
2018-05-21T19:39:59.192Z,32.23
2018-05-21T19:42:31.693Z,32.44
2018-05-21T19:45:04.265Z,32.42
2018-05-21T19:47:36.956Z,33.56
2018-05-21T19:50:09.522Z,33.00
2018-05-21T19:52:42.054Z,33.07
2018-05-21T19:55:14.597Z,33.30
2018-05-21T19:57:47.108Z,33.32
2018-05-21T20:00:19.631Z,33.35
2018-05-21T20:02:52.134Z,33.69
2018-05-21T20:05:24.657Z,33.95
2018-05-21T20:07:57.180Z,34.11
2018-05-21T20:10:29.704Z,34.31
2018-05-21T20:13:02.233Z,34.38
2018-05-21T20:15:34.774Z,34.68
2018-05-21T20:18:07.558Z,34.72
2018-05-21T20:20:42.931Z,36.64
2018-05-21T20:23:15.542Z,36.37
2018-05-21T20:25:48.049Z,35.85
2018-05-21T20:28:20.572Z,36.22
2018-05-21T20:30:53.083Z,36.19
2018-05-21T20:33:25.619Z,36.38
2018-05-21T20:35:58.120Z,36.67
2018-05-21T20:38:30.649Z,36.85
2018-05-21T20:41:03.148Z,36.94
2018-05-21T20:43:36.516Z,37.54
2018-05-21T20:46:09.040Z,37.58
2018-05-21T20:48:41.592Z,37.93
2018-05-21T20:51:14.129Z,37.81
2018-05-21T20:53:46.665Z,37.96
2018-05-21T20:56:19.181Z,38.00
2018-05-21T20:58:51.715Z,38.43
2018-05-21T21:01:24.318Z,38.93
2018-05-21T21:03:56.793Z,38.79
2018-05-21T21:06:29.319Z,39.00
2018-05-21T21:09:01.848Z,39.12
2018-05-21T21:11:34.355Z,39.51
2018-05-21T21:14:06.951Z,40.52
2018-05-21T21:16:40.112Z,40.21
2018-05-21T21:19:12.649Z,40.93
2018-05-21T21:21:45.595Z,41.57
2018-05-21T21:24:18.194Z,41.49
2018-05-21T21:26:50.693Z,41.64
2018-05-21T21:29:23.219Z,41.45
2018-05-21T21:31:55.723Z,41.46
2018-05-21T21:34:28.259Z,41.61
2018-05-21T21:37:00.777Z,41.38
2018-05-21T21:39:33.305Z,41.40
2018-05-21T21:42:06.477Z,41.87
2018-05-21T21:44:39.058Z,41.89
2018-05-21T21:47:11.567Z,43.52
2018-05-21T21:49:45.089Z,42.64
2018-05-21T21:52:17.627Z,43.00
2018-05-21T21:54:50.146Z,43.70
2018-05-21T21:57:22.670Z,43.85
2018-05-21T21:59:55.257Z,43.47
2018-05-21T22:02:27.768Z,43.41
2018-05-21T22:05:00.294Z,44.48
2018-05-21T22:07:32.791Z,43.83
2018-05-21T22:10:05.958Z,44.11
2018-05-21T22:12:38.475Z,44.42
2018-05-21T22:15:11.015Z,44.84
2018-05-21T22:17:43.544Z,45.12
2018-05-21T22:20:16.087Z,44.59
2018-05-21T22:22:48.614Z,44.88
2018-05-21T22:25:21.146Z,44.64
2018-05-21T22:27:53.670Z,44.95
2018-05-21T22:30:26.200Z,44.85
2018-05-21T22:32:58.699Z,45.24
2018-05-21T22:35:31.220Z,45.50
2018-05-21T22:38:03.781Z,46.38
2018-05-21T22:40:36.726Z,45.70
2018-05-21T22:43:09.382Z,45.60
2018-05-21T22:45:41.962Z,46.43
2018-05-21T22:48:14.909Z,46.95
2018-05-21T22:50:47.546Z,46.21
2018-05-21T22:53:20.135Z,46.19
2018-05-21T22:55:52.737Z,46.77
2018-05-21T22:58:25.272Z,47.33
2018-05-21T23:00:57.877Z,46.43
2018-05-21T23:03:30.371Z,46.28
2018-05-21T23:06:02.901Z,46.56
2018-05-21T23:08:36.236Z,46.19
2018-05-21T23:11:08.803Z,46.46
2018-05-21T23:13:41.360Z,46.17
2018-05-21T23:16:13.897Z,47.45
2018-05-21T23:18:46.393Z,46.57
2018-05-21T23:21:18.917Z,46.54
2018-05-21T23:23:51.421Z,46.88
2018-05-21T23:26:23.956Z,46.90
2018-05-21T23:28:56.458Z,46.85
2018-05-21T23:31:28.976Z,48.03
2018-05-21T23:34:01.480Z,47.87
2018-05-21T23:36:33.994Z,47.47
2018-05-21T23:39:06.972Z,47.61
2018-05-21T23:41:39.517Z,47.66
2018-05-21T23:44:12.124Z,48.05
2018-05-21T23:46:44.635Z,48.35
2018-05-21T23:49:17.158Z,48.20
2018-05-21T23:51:49.660Z,48.25
2018-05-21T23:54:22.188Z,48.43
2018-05-21T23:56:54.695Z,48.43
2018-05-21T23:59:27.210Z,48.39
